sensor_id;sensor_type;location;lat;lon;timestamp;P1;durP1;ratioP1;P2;durP2;ratioP2
47958;SDS011;33718;50.910;-1.514;2023-07-22T00:00:21;1.85;;;1.00;;
47958;SDS011;33718;50.910;-1.514;2023-07-22T00:02:26;2.25;;;0.73;;
47958;SDS011;33718;50.910;-1.514;2023-07-22T00:04:31;5.15;;;1.08;;
47958;SDS011;33718;50.910;-1.514;2023-07-22T00:06:32;3.40;;;1.00;;
47958;SDS011;33718;50.910;-1.514;2023-07-22T00:08:34;1.63;;;0.93;;
47958;SDS011;33718;50.910;-1.514;2023-07-22T00:10:42;1.45;;;0.90;;
47958;SDS011;33718;50.910;-1.514;2023-07-22T00:12:46;1.77;;;1.05;;
47958;SDS011;33718;50.910;-1.514;2023-07-22T00:14:51;1.23;;;0.85;;
47958;SDS011;33718;50.910;-1.514;2023-07-22T00:16:55;2.13;;;0.80;;
47958;SDS011;33718;50.910;-1.514;2023-07-22T00:18:57;2.53;;;0.95;;
47958;SDS011;33718;50.910;-1.514;2023-07-22T00:21:00;4.28;;;0.95;;
47958;SDS011;33718;50.910;-1.514;2023-07-22T00:23:30;1.67;;;1.02;;
47958;SDS011;33718;50.910;-1.514;2023-07-22T00:25:48;1.85;;;0.98;;
47958;SDS011;33718;50.910;-1.514;2023-07-22T00:28:00;2.42;;;0.70;;
47958;SDS011;33718;50.910;-1.514;2023-07-22T00:30:07;3.92;;;1.80;;
47958;SDS011;33718;50.910;-1.514;2023-07-22T00:32:17;1.35;;;0.93;;
47958;SDS011;33718;50.910;-1.514;2023-07-22T00:34:23;1.08;;;0.50;;
47958;SDS011;33718;50.910;-1.514;2023-07-22T00:36:36;4.28;;;0.98;;
47958;SDS011;33718;50.910;-1.514;2023-07-22T00:38:43;1.38;;;0.88;;
47958;SDS011;33718;50.910;-1.514;2023-07-22T00:40:52;3.05;;;0.75;;
47958;SDS011;33718;50.910;-1.514;2023-07-22T00:43:03;3.88;;;1.00;;
47958;SDS011;33718;50.910;-1.514;2023-07-22T00:45:32;2.30;;;1.10;;
47958;SDS011;33718;50.910;-1.514;2023-07-22T00:47:39;1.98;;;0.90;;
47958;SDS011;33718;50.910;-1.514;2023-07-22T00:49:48;0.85;;;0.63;;
47958;SDS011;33718;50.910;-1.514;2023-07-22T00:51:56;1.77;;;1.10;;
47958;SDS011;33718;50.910;-1.514;2023-07-22T00:54:08;1.52;;;0.93;;
47958;SDS011;33718;50.910;-1.514;2023-07-22T00:56:17;4.57;;;0.90;;
47958;SDS011;33718;50.910;-1.514;2023-07-22T00:58:20;0.93;;;0.70;;
47958;SDS011;33718;50.910;-1.514;2023-07-22T01:00:21;3.65;;;0.73;;
47958;SDS011;33718;50.910;-1.514;2023-07-22T01:02:23;2.00;;;0.80;;
47958;SDS011;33718;50.910;-1.514;2023-07-22T01:04:28;3.70;;;0.70;;
47958;SDS011;33718;50.910;-1.514;2023-07-22T01:06:32;1.83;;;0.73;;
47958;SDS011;33718;50.910;-1.514;2023-07-22T01:08:34;4.63;;;1.00;;
47958;SDS011;33718;50.910;-1.514;2023-07-22T01:10:39;1.45;;;0.75;;
47958;SDS011;33718;50.910;-1.514;2023-07-22T01:12:59;1.58;;;1.02;;
47958;SDS011;33718;50.910;-1.514;2023-07-22T01:15:01;1.63;;;1.10;;
47958;SDS011;33718;50.910;-1.514;2023-07-22T01:17:05;5.63;;;1.08;;
47958;SDS011;33718;50.910;-1.514;2023-07-22T01:19:10;1.35;;;0.80;;
47958;SDS011;33718;50.910;-1.514;2023-07-22T01:23:19;2.47;;;1.20;;
47958;SDS011;33718;50.910;-1.514;2023-07-22T01:25:24;2.03;;;1.23;;
47958;SDS011;33718;50.910;-1.514;2023-07-22T01:27:31;2.47;;;0.90;;
47958;SDS011;33718;50.910;-1.514;2023-07-22T01:29:32;3.63;;;1.10;;
47958;SDS011;33718;50.910;-1.514;2023-07-22T01:31:34;3.70;;;1.38;;
47958;SDS011;33718;50.910;-1.514;2023-07-22T01:33:39;3.60;;;1.20;;
47958;SDS011;33718;50.910;-1.514;2023-07-22T01:35:44;2.33;;;1.20;;
47958;SDS011;33718;50.910;-1.514;2023-07-22T01:37:45;3.13;;;0.88;;
47958;SDS011;33718;50.910;-1.514;2023-07-22T01:39:47;1.50;;;1.10;;
47958;SDS011;33718;50.910;-1.514;2023-07-22T01:41:57;1.52;;;1.02;;
47958;SDS011;33718;50.910;-1.514;2023-07-22T01:44:02;2.45;;;1.25;;
47958;SDS011;33718;50.910;-1.514;2023-07-22T01:46:03;3.17;;;1.20;;
47958;SDS011;33718;50.910;-1.514;2023-07-22T01:48:05;3.47;;;1.20;;
47958;SDS011;33718;50.910;-1.514;2023-07-22T01:50:10;4.93;;;1.75;;
47958;SDS011;33718;50.910;-1.514;2023-07-22T01:52:14;1.63;;;1.30;;
47958;SDS011;33718;50.910;-1.514;2023-07-22T01:54:35;3.60;;;1.90;;
47958;SDS011;33718;50.910;-1.514;2023-07-22T01:56:36;1.75;;;1.27;;
47958;SDS011;33718;50.910;-1.514;2023-07-22T01:58:40;5.00;;;1.33;;
47958;SDS011;33718;50.910;-1.514;2023-07-22T02:00:49;5.30;;;1.02;;
47958;SDS011;33718;50.910;-1.514;2023-07-22T02:02:53;2.05;;;1.25;;
47958;SDS011;33718;50.910;-1.514;2023-07-22T02:04:54;5.63;;;1.73;;
47958;SDS011;33718;50.910;-1.514;2023-07-22T02:06:56;3.80;;;1.63;;
47958;SDS011;33718;50.910;-1.514;2023-07-22T02:11:12;8.02;;;2.63;;
47958;SDS011;33718;50.910;-1.514;2023-07-22T02:13:33;2.80;;;1.92;;
47958;SDS011;33718;50.910;-1.514;2023-07-22T02:15:38;5.03;;;2.05;;
47958;SDS011;33718;50.910;-1.514;2023-07-22T02:17:39;2.17;;;1.63;;
47958;SDS011;33718;50.910;-1.514;2023-07-22T02:19:43;3.53;;;1.83;;
47958;SDS011;33718;50.910;-1.514;2023-07-22T02:21:45;2.83;;;1.83;;
47958;SDS011;33718;50.910;-1.514;2023-07-22T02:23:50;2.72;;;2.20;;
47958;SDS011;33718;50.910;-1.514;2023-07-22T02:25:51;3.63;;;1.77;;
47958;SDS011;33718;50.910;-1.514;2023-07-22T02:27:53;9.05;;;2.10;;
47958;SDS011;33718;50.910;-1.514;2023-07-22T02:29:57;3.28;;;2.10;;
47958;SDS011;33718;50.910;-1.514;2023-07-22T02:31:59;5.43;;;2.40;;
47958;SDS011;33718;50.910;-1.514;2023-07-22T02:34:01;2.28;;;1.63;;
47958;SDS011;33718;50.910;-1.514;2023-07-22T02:36:02;5.32;;;1.98;;
47958;SDS011;33718;50.910;-1.514;2023-07-22T02:38:06;3.42;;;1.92;;
47958;SDS011;33718;50.910;-1.514;2023-07-22T02:40:11;3.85;;;1.73;;
47958;SDS011;33718;50.910;-1.514;2023-07-22T02:42:32;3.63;;;2.38;;
47958;SDS011;33718;50.910;-1.514;2023-07-22T02:44:33;5.47;;;1.98;;
47958;SDS011;33718;50.910;-1.514;2023-07-22T02:46:35;4.88;;;2.60;;
47958;SDS011;33718;50.910;-1.514;2023-07-22T02:48:37;6.15;;;2.42;;
47958;SDS011;33718;50.910;-1.514;2023-07-22T02:52:42;4.93;;;2.42;;
47958;SDS011;33718;50.910;-1.514;2023-07-22T02:54:53;4.50;;;2.28;;
47958;SDS011;33718;50.910;-1.514;2023-07-22T02:57:07;3.58;;;2.30;;
47958;SDS011;33718;50.910;-1.514;2023-07-22T02:59:12;7.28;;;2.90;;
47958;SDS011;33718;50.910;-1.514;2023-07-22T03:01:19;5.13;;;2.05;;
47958;SDS011;33718;50.910;-1.514;2023-07-22T03:03:24;2.35;;;1.98;;
47958;SDS011;33718;50.910;-1.514;2023-07-22T03:05:25;2.80;;;1.90;;
47958;SDS011;33718;50.910;-1.514;2023-07-22T03:07:29;6.80;;;2.72;;
47958;SDS011;33718;50.910;-1.514;2023-07-22T03:09:31;4.63;;;2.65;;
47958;SDS011;33718;50.910;-1.514;2023-07-22T03:11:42;2.97;;;2.08;;
47958;SDS011;33718;50.910;-1.514;2023-07-22T03:13:46;4.47;;;1.92;;
47958;SDS011;33718;50.910;-1.514;2023-07-22T03:15:49;2.72;;;1.80;;
47958;SDS011;33718;50.910;-1.514;2023-07-22T03:17:53;3.53;;;1.65;;
47958;SDS011;33718;50.910;-1.514;2023-07-22T03:19:55;5.93;;;1.88;;
47958;SDS011;33718;50.910;-1.514;2023-07-22T03:21:57;5.53;;;2.53;;
47958;SDS011;33718;50.910;-1.514;2023-07-22T03:24:01;2.10;;;1.58;;
47958;SDS011;33718;50.910;-1.514;2023-07-22T03:26:03;4.20;;;1.65;;
47958;SDS011;33718;50.910;-1.514;2023-07-22T03:28:12;6.13;;;1.83;;
47958;SDS011;33718;50.910;-1.514;2023-07-22T03:32:56;3.10;;;1.88;;
47958;SDS011;33718;50.910;-1.514;2023-07-22T03:35:23;4.68;;;2.00;;
47958;SDS011;33718;50.910;-1.514;2023-07-22T03:38:00;3.42;;;1.80;;
47958;SDS011;33718;50.910;-1.514;2023-07-22T03:40:24;2.47;;;1.73;;
47958;SDS011;33718;50.910;-1.514;2023-07-22T03:42:43;6.60;;;1.85;;
47958;SDS011;33718;50.910;-1.514;2023-07-22T03:45:07;6.13;;;1.98;;
47958;SDS011;33718;50.910;-1.514;2023-07-22T03:47:35;2.10;;;1.55;;
47958;SDS011;33718;50.910;-1.514;2023-07-22T03:50:07;6.13;;;1.80;;
47958;SDS011;33718;50.910;-1.514;2023-07-22T03:52:35;5.20;;;2.10;;
47958;SDS011;33718;50.910;-1.514;2023-07-22T03:54:54;2.70;;;2.03;;
47958;SDS011;33718;50.910;-1.514;2023-07-22T03:57:13;4.32;;;1.63;;
47958;SDS011;33718;50.910;-1.514;2023-07-22T03:59:36;3.58;;;1.83;;
47958;SDS011;33718;50.910;-1.514;2023-07-22T04:01:58;3.20;;;1.55;;
47958;SDS011;33718;50.910;-1.514;2023-07-22T04:03:59;5.05;;;1.73;;
47958;SDS011;33718;50.910;-1.514;2023-07-22T04:06:04;3.80;;;1.95;;
47958;SDS011;33718;50.910;-1.514;2023-07-22T04:08:06;4.13;;;1.77;;
47958;SDS011;33718;50.910;-1.514;2023-07-22T04:10:10;2.83;;;1.60;;
47958;SDS011;33718;50.910;-1.514;2023-07-22T04:12:12;2.63;;;1.27;;
47958;SDS011;33718;50.910;-1.514;2023-07-22T04:14:13;2.83;;;1.20;;
47958;SDS011;33718;50.910;-1.514;2023-07-22T04:16:17;2.00;;;1.30;;
47958;SDS011;33718;50.910;-1.514;2023-07-22T04:18:22;2.90;;;1.00;;
47958;SDS011;33718;50.910;-1.514;2023-07-22T04:20:23;6.47;;;1.30;;
47958;SDS011;33718;50.910;-1.514;2023-07-22T04:22:26;6.57;;;1.15;;
47958;SDS011;33718;50.910;-1.514;2023-07-22T04:24:28;3.97;;;1.42;;
47958;SDS011;33718;50.910;-1.514;2023-07-22T04:26:30;2.38;;;1.40;;
47958;SDS011;33718;50.910;-1.514;2023-07-22T04:28:32;2.50;;;1.05;;
47958;SDS011;33718;50.910;-1.514;2023-07-22T04:30:36;1.80;;;1.65;;
47958;SDS011;33718;50.910;-1.514;2023-07-22T04:32:40;2.63;;;1.40;;
47958;SDS011;33718;50.910;-1.514;2023-07-22T04:34:42;1.30;;;1.20;;
47958;SDS011;33718;50.910;-1.514;2023-07-22T04:36:44;3.72;;;1.33;;
47958;SDS011;33718;50.910;-1.514;2023-07-22T04:38:48;3.53;;;1.30;;
47958;SDS011;33718;50.910;-1.514;2023-07-22T04:40:52;3.35;;;1.10;;
47958;SDS011;33718;50.910;-1.514;2023-07-22T04:42:56;1.98;;;1.63;;
47958;SDS011;33718;50.910;-1.514;2023-07-22T04:45:01;2.35;;;1.17;;
47958;SDS011;33718;50.910;-1.514;2023-07-22T04:47:02;1.90;;;1.27;;
47958;SDS011;33718;50.910;-1.514;2023-07-22T04:49:04;1.40;;;1.23;;
47958;SDS011;33718;50.910;-1.514;2023-07-22T04:51:08;3.50;;;1.85;;
47958;SDS011;33718;50.910;-1.514;2023-07-22T04:53:09;6.00;;;1.30;;
47958;SDS011;33718;50.910;-1.514;2023-07-22T04:55:17;6.97;;;1.63;;
47958;SDS011;33718;50.910;-1.514;2023-07-22T04:57:20;3.05;;;1.27;;
47958;SDS011;33718;50.910;-1.514;2023-07-22T04:59:27;2.80;;;1.48;;
47958;SDS011;33718;50.910;-1.514;2023-07-22T05:01:29;2.38;;;1.38;;
47958;SDS011;33718;50.910;-1.514;2023-07-22T05:03:30;2.63;;;1.10;;
47958;SDS011;33718;50.910;-1.514;2023-07-22T05:05:35;2.40;;;1.40;;
47958;SDS011;33718;50.910;-1.514;2023-07-22T05:07:40;3.70;;;1.00;;
47958;SDS011;33718;50.910;-1.514;2023-07-22T05:10:00;4.57;;;1.77;;
47958;SDS011;33718;50.910;-1.514;2023-07-22T05:12:02;2.40;;;1.10;;
47958;SDS011;33718;50.910;-1.514;2023-07-22T05:14:06;1.83;;;1.27;;
47958;SDS011;33718;50.910;-1.514;2023-07-22T05:16:10;3.30;;;1.23;;
47958;SDS011;33718;50.910;-1.514;2023-07-22T05:18:12;5.63;;;2.30;;
47958;SDS011;33718;50.910;-1.514;2023-07-22T05:20:14;2.20;;;1.10;;
47958;SDS011;33718;50.910;-1.514;2023-07-22T05:22:21;4.95;;;1.25;;
47958;SDS011;33718;50.910;-1.514;2023-07-22T05:24:41;4.00;;;1.20;;
47958;SDS011;33718;50.910;-1.514;2023-07-22T05:27:02;2.45;;;1.70;;
47958;SDS011;33718;50.910;-1.514;2023-07-22T05:29:29;2.20;;;0.95;;
47958;SDS011;33718;50.910;-1.514;2023-07-22T05:33:34;4.13;;;1.30;;
47958;SDS011;33718;50.910;-1.514;2023-07-22T05:35:46;4.43;;;1.83;;
47958;SDS011;33718;50.910;-1.514;2023-07-22T05:37:52;4.13;;;1.13;;
47958;SDS011;33718;50.910;-1.514;2023-07-22T05:39:56;1.88;;;1.02;;
47958;SDS011;33718;50.910;-1.514;2023-07-22T05:42:00;1.77;;;0.90;;
47958;SDS011;33718;50.910;-1.514;2023-07-22T05:44:02;4.22;;;1.50;;
47958;SDS011;33718;50.910;-1.514;2023-07-22T05:46:03;3.05;;;1.15;;
47958;SDS011;33718;50.910;-1.514;2023-07-22T05:48:05;4.00;;;1.67;;
47958;SDS011;33718;50.910;-1.514;2023-07-22T05:50:10;6.45;;;0.98;;
47958;SDS011;33718;50.910;-1.514;2023-07-22T05:52:11;5.80;;;1.10;;
47958;SDS011;33718;50.910;-1.514;2023-07-22T05:54:16;5.75;;;1.00;;
47958;SDS011;33718;50.910;-1.514;2023-07-22T05:56:21;6.38;;;1.52;;
47958;SDS011;33718;50.910;-1.514;2023-07-22T05:58:25;2.10;;;0.85;;
47958;SDS011;33718;50.910;-1.514;2023-07-22T06:00:27;3.63;;;1.27;;
47958;SDS011;33718;50.910;-1.514;2023-07-22T06:02:31;2.42;;;1.00;;
47958;SDS011;33718;50.910;-1.514;2023-07-22T06:04:33;6.30;;;1.42;;
47958;SDS011;33718;50.910;-1.514;2023-07-22T06:06:34;5.53;;;1.23;;
47958;SDS011;33718;50.910;-1.514;2023-07-22T06:08:39;3.03;;;0.98;;
47958;SDS011;33718;50.910;-1.514;2023-07-22T06:10:41;3.65;;;1.15;;
47958;SDS011;33718;50.910;-1.514;2023-07-22T06:12:42;3.83;;;0.98;;
47958;SDS011;33718;50.910;-1.514;2023-07-22T06:14:44;3.22;;;0.90;;
47958;SDS011;33718;50.910;-1.514;2023-07-22T06:16:45;7.47;;;1.25;;
47958;SDS011;33718;50.910;-1.514;2023-07-22T06:18:51;6.22;;;1.27;;
47958;SDS011;33718;50.910;-1.514;2023-07-22T06:20:53;2.83;;;0.85;;
47958;SDS011;33718;50.910;-1.514;2023-07-22T06:22:54;3.78;;;1.30;;
47958;SDS011;33718;50.910;-1.514;2023-07-22T06:24:59;4.35;;;1.38;;
47958;SDS011;33718;50.910;-1.514;2023-07-22T06:27:00;4.38;;;1.10;;
47958;SDS011;33718;50.910;-1.514;2023-07-22T06:29:02;5.32;;;1.40;;
47958;SDS011;33718;50.910;-1.514;2023-07-22T06:31:04;4.32;;;1.15;;
47958;SDS011;33718;50.910;-1.514;2023-07-22T06:33:09;4.97;;;1.30;;
47958;SDS011;33718;50.910;-1.514;2023-07-22T06:35:21;5.75;;;1.30;;
47958;SDS011;33718;50.910;-1.514;2023-07-22T06:37:36;3.88;;;1.50;;
47958;SDS011;33718;50.910;-1.514;2023-07-22T06:40:07;6.25;;;1.73;;
47958;SDS011;33718;50.910;-1.514;2023-07-22T06:42:22;4.65;;;1.70;;
47958;SDS011;33718;50.910;-1.514;2023-07-22T06:44:55;4.95;;;1.40;;
47958;SDS011;33718;50.910;-1.514;2023-07-22T06:47:05;3.97;;;1.67;;
47958;SDS011;33718;50.910;-1.514;2023-07-22T06:49:34;3.70;;;1.33;;
47958;SDS011;33718;50.910;-1.514;2023-07-22T06:51:49;5.90;;;1.60;;
47958;SDS011;33718;50.910;-1.514;2023-07-22T06:54:07;6.55;;;1.60;;
47958;SDS011;33718;50.910;-1.514;2023-07-22T06:56:13;8.82;;;1.60;;
47958;SDS011;33718;50.910;-1.514;2023-07-22T06:58:21;10.05;;;2.13;;
47958;SDS011;33718;50.910;-1.514;2023-07-22T07:00:34;8.52;;;1.88;;
47958;SDS011;33718;50.910;-1.514;2023-07-22T07:02:47;4.53;;;1.50;;
47958;SDS011;33718;50.910;-1.514;2023-07-22T07:04:57;7.18;;;1.90;;
47958;SDS011;33718;50.910;-1.514;2023-07-22T07:07:05;9.20;;;2.28;;
47958;SDS011;33718;50.910;-1.514;2023-07-22T07:09:15;4.55;;;2.20;;
47958;SDS011;33718;50.910;-1.514;2023-07-22T07:11:21;8.57;;;2.35;;
47958;SDS011;33718;50.910;-1.514;2023-07-22T07:13:25;6.18;;;2.63;;
47958;SDS011;33718;50.910;-1.514;2023-07-22T07:15:29;5.90;;;3.25;;
47958;SDS011;33718;50.910;-1.514;2023-07-22T07:17:33;7.03;;;2.13;;
47958;SDS011;33718;50.910;-1.514;2023-07-22T07:19:38;4.35;;;2.08;;
47958;SDS011;33718;50.910;-1.514;2023-07-22T07:21:42;6.65;;;2.53;;
47958;SDS011;33718;50.910;-1.514;2023-07-22T07:23:44;5.40;;;2.25;;
47958;SDS011;33718;50.910;-1.514;2023-07-22T07:25:45;10.63;;;2.53;;
47958;SDS011;33718;50.910;-1.514;2023-07-22T07:27:47;4.95;;;2.42;;
47958;SDS011;33718;50.910;-1.514;2023-07-22T07:29:51;5.18;;;2.22;;
47958;SDS011;33718;50.910;-1.514;2023-07-22T07:31:57;5.05;;;2.70;;
47958;SDS011;33718;50.910;-1.514;2023-07-22T07:34:02;6.05;;;2.10;;
47958;SDS011;33718;50.910;-1.514;2023-07-22T07:36:06;9.88;;;3.00;;
47958;SDS011;33718;50.910;-1.514;2023-07-22T07:38:26;9.15;;;2.50;;
47958;SDS011;33718;50.910;-1.514;2023-07-22T07:40:31;8.57;;;2.60;;
47958;SDS011;33718;50.910;-1.514;2023-07-22T07:42:33;4.30;;;2.60;;
47958;SDS011;33718;50.910;-1.514;2023-07-22T07:44:37;9.23;;;3.08;;
47958;SDS011;33718;50.910;-1.514;2023-07-22T07:46:42;7.78;;;2.63;;
47958;SDS011;33718;50.910;-1.514;2023-07-22T07:48:47;8.32;;;2.72;;
47958;SDS011;33718;50.910;-1.514;2023-07-22T07:50:49;8.07;;;3.17;;
47958;SDS011;33718;50.910;-1.514;2023-07-22T07:52:53;4.30;;;2.33;;
47958;SDS011;33718;50.910;-1.514;2023-07-22T07:54:57;3.78;;;2.80;;
47958;SDS011;33718;50.910;-1.514;2023-07-22T07:56:59;8.52;;;2.92;;
47958;SDS011;33718;50.910;-1.514;2023-07-22T07:59:00;8.13;;;2.53;;
47958;SDS011;33718;50.910;-1.514;2023-07-22T08:01:22;6.85;;;3.63;;
47958;SDS011;33718;50.910;-1.514;2023-07-22T08:03:24;7.95;;;2.67;;
47958;SDS011;33718;50.910;-1.514;2023-07-22T08:05:25;3.90;;;2.38;;
47958;SDS011;33718;50.910;-1.514;2023-07-22T08:07:27;8.27;;;2.65;;
47958;SDS011;33718;50.910;-1.514;2023-07-22T08:09:31;6.97;;;2.55;;
47958;SDS011;33718;50.910;-1.514;2023-07-22T08:11:33;3.75;;;2.10;;
47958;SDS011;33718;50.910;-1.514;2023-07-22T08:13:35;4.30;;;1.80;;
47958;SDS011;33718;50.910;-1.514;2023-07-22T08:15:40;3.70;;;2.00;;
47958;SDS011;33718;50.910;-1.514;2023-07-22T08:17:46;4.90;;;1.90;;
47958;SDS011;33718;50.910;-1.514;2023-07-22T08:19:47;2.42;;;1.77;;
47958;SDS011;33718;50.910;-1.514;2023-07-22T08:21:50;5.47;;;1.95;;
47958;SDS011;33718;50.910;-1.514;2023-07-22T08:23:52;6.68;;;2.05;;
47958;SDS011;33718;50.910;-1.514;2023-07-22T08:25:56;5.00;;;2.28;;
47958;SDS011;33718;50.910;-1.514;2023-07-22T08:28:01;6.65;;;2.28;;
47958;SDS011;33718;50.910;-1.514;2023-07-22T08:30:02;3.80;;;2.00;;
47958;SDS011;33718;50.910;-1.514;2023-07-22T08:32:04;3.17;;;2.40;;
47958;SDS011;33718;50.910;-1.514;2023-07-22T08:34:08;5.38;;;2.50;;
47958;SDS011;33718;50.910;-1.514;2023-07-22T08:36:10;5.85;;;2.10;;
47958;SDS011;33718;50.910;-1.514;2023-07-22T08:38:30;4.18;;;1.88;;
47958;SDS011;33718;50.910;-1.514;2023-07-22T08:40:35;6.72;;;2.88;;
47958;SDS011;33718;50.910;-1.514;2023-07-22T08:42:38;8.57;;;2.35;;
47958;SDS011;33718;50.910;-1.514;2023-07-22T08:44:43;6.45;;;1.92;;
47958;SDS011;33718;50.910;-1.514;2023-07-22T08:46:45;3.88;;;2.15;;
47958;SDS011;33718;50.910;-1.514;2023-07-22T08:48:47;7.03;;;2.30;;
47958;SDS011;33718;50.910;-1.514;2023-07-22T08:51:03;4.00;;;1.60;;
47958;SDS011;33718;50.910;-1.514;2023-07-22T08:53:14;6.15;;;1.80;;
47958;SDS011;33718;50.910;-1.514;2023-07-22T08:55:16;6.03;;;2.65;;
47958;SDS011;33718;50.910;-1.514;2023-07-22T08:57:17;5.00;;;2.47;;
47958;SDS011;33718;50.910;-1.514;2023-07-22T08:59:23;3.08;;;1.42;;
47958;SDS011;33718;50.910;-1.514;2023-07-22T09:01:28;2.78;;;1.73;;
47958;SDS011;33718;50.910;-1.514;2023-07-22T09:03:32;6.45;;;1.80;;
47958;SDS011;33718;50.910;-1.514;2023-07-22T09:05:34;6.60;;;2.22;;
47958;SDS011;33718;50.910;-1.514;2023-07-22T09:07:38;8.98;;;2.00;;
47958;SDS011;33718;50.910;-1.514;2023-07-22T09:09:44;6.20;;;1.85;;
47958;SDS011;33718;50.910;-1.514;2023-07-22T09:11:49;4.80;;;1.95;;
47958;SDS011;33718;50.910;-1.514;2023-07-22T09:13:54;6.50;;;2.05;;
47958;SDS011;33718;50.910;-1.514;2023-07-22T09:15:59;4.43;;;1.98;;
47958;SDS011;33718;50.910;-1.514;2023-07-22T09:18:04;6.25;;;2.90;;
47958;SDS011;33718;50.910;-1.514;2023-07-22T09:20:08;8.50;;;2.10;;
47958;SDS011;33718;50.910;-1.514;2023-07-22T09:22:13;4.88;;;2.05;;
47958;SDS011;33718;50.910;-1.514;2023-07-22T09:24:21;6.35;;;2.22;;
47958;SDS011;33718;50.910;-1.514;2023-07-22T09:26:23;7.70;;;2.10;;
47958;SDS011;33718;50.910;-1.514;2023-07-22T09:28:26;4.90;;;2.15;;
47958;SDS011;33718;50.910;-1.514;2023-07-22T09:30:32;7.63;;;2.25;;
47958;SDS011;33718;50.910;-1.514;2023-07-22T09:32:35;6.13;;;2.60;;
47958;SDS011;33718;50.910;-1.514;2023-07-22T09:35:02;5.72;;;2.58;;
47958;SDS011;33718;50.910;-1.514;2023-07-22T09:37:08;8.57;;;3.22;;
47958;SDS011;33718;50.910;-1.514;2023-07-22T09:39:22;8.25;;;2.38;;
47958;SDS011;33718;50.910;-1.514;2023-07-22T09:41:42;6.30;;;3.30;;
47958;SDS011;33718;50.910;-1.514;2023-07-22T09:43:49;8.13;;;2.67;;
47958;SDS011;33718;50.910;-1.514;2023-07-22T09:45:56;9.10;;;2.92;;
47958;SDS011;33718;50.910;-1.514;2023-07-22T09:48:26;13.48;;;4.40;;
47958;SDS011;33718;50.910;-1.514;2023-07-22T09:50:30;9.40;;;3.13;;
47958;SDS011;33718;50.910;-1.514;2023-07-22T09:52:53;13.27;;;3.72;;
47958;SDS011;33718;50.910;-1.514;2023-07-22T09:55:00;7.80;;;2.97;;
47958;SDS011;33718;50.910;-1.514;2023-07-22T09:57:03;4.18;;;2.40;;
47958;SDS011;33718;50.910;-1.514;2023-07-22T09:59:07;9.15;;;3.20;;
47958;SDS011;33718;50.910;-1.514;2023-07-22T10:01:22;7.70;;;3.50;;
47958;SDS011;33718;50.910;-1.514;2023-07-22T10:03:27;8.48;;;3.80;;
47958;SDS011;33718;50.910;-1.514;2023-07-22T10:05:38;8.15;;;2.70;;
47958;SDS011;33718;50.910;-1.514;2023-07-22T10:07:45;5.32;;;2.47;;
47958;SDS011;33718;50.910;-1.514;2023-07-22T10:09:52;8.18;;;3.30;;
47958;SDS011;33718;50.910;-1.514;2023-07-22T10:11:59;6.82;;;3.50;;
47958;SDS011;33718;50.910;-1.514;2023-07-22T10:14:02;5.90;;;3.40;;
47958;SDS011;33718;50.910;-1.514;2023-07-22T10:16:05;9.25;;;2.70;;
47958;SDS011;33718;50.910;-1.514;2023-07-22T10:18:09;7.32;;;3.25;;
47958;SDS011;33718;50.910;-1.514;2023-07-22T10:20:16;8.38;;;4.28;;
47958;SDS011;33718;50.910;-1.514;2023-07-22T10:22:41;6.10;;;3.70;;
47958;SDS011;33718;50.910;-1.514;2023-07-22T10:24:45;8.70;;;3.67;;
47958;SDS011;33718;50.910;-1.514;2023-07-22T10:26:48;10.60;;;5.05;;
47958;SDS011;33718;50.910;-1.514;2023-07-22T10:28:55;5.70;;;3.55;;
47958;SDS011;33718;50.910;-1.514;2023-07-22T10:31:00;11.90;;;4.20;;
47958;SDS011;33718;50.910;-1.514;2023-07-22T10:33:05;6.97;;;4.57;;
47958;SDS011;33718;50.910;-1.514;2023-07-22T10:36:01;7.28;;;4.38;;
47958;SDS011;33718;50.910;-1.514;2023-07-22T10:39:36;9.73;;;3.90;;
47958;SDS011;33718;50.910;-1.514;2023-07-22T10:41:37;9.95;;;4.30;;
47958;SDS011;33718;50.910;-1.514;2023-07-22T10:43:55;10.57;;;4.20;;
47958;SDS011;33718;50.910;-1.514;2023-07-22T10:46:07;10.27;;;4.35;;
47958;SDS011;33718;50.910;-1.514;2023-07-22T10:48:33;11.95;;;4.40;;
47958;SDS011;33718;50.910;-1.514;2023-07-22T10:50:39;11.23;;;4.40;;
47958;SDS011;33718;50.910;-1.514;2023-07-22T10:52:44;11.10;;;3.83;;
47958;SDS011;33718;50.910;-1.514;2023-07-22T10:54:49;10.07;;;4.70;;
47958;SDS011;33718;50.910;-1.514;2023-07-22T10:56:53;10.38;;;4.00;;
47958;SDS011;33718;50.910;-1.514;2023-07-22T10:59:00;8.88;;;4.47;;
47958;SDS011;33718;50.910;-1.514;2023-07-22T11:03:28;10.52;;;4.95;;
47958;SDS011;33718;50.910;-1.514;2023-07-22T11:05:46;12.68;;;5.10;;
47958;SDS011;33718;50.910;-1.514;2023-07-22T11:07:48;10.10;;;5.57;;
47958;SDS011;33718;50.910;-1.514;2023-07-22T11:09:53;14.88;;;5.50;;
47958;SDS011;33718;50.910;-1.514;2023-07-22T11:12:12;17.13;;;5.78;;
47958;SDS011;33718;50.910;-1.514;2023-07-22T11:15:06;8.65;;;5.63;;
47958;SDS011;33718;50.910;-1.514;2023-07-22T11:17:01;12.57;;;6.20;;
47958;SDS011;33718;50.910;-1.514;2023-07-22T11:19:05;6.78;;;4.78;;
47958;SDS011;33718;50.910;-1.514;2023-07-22T11:21:07;12.60;;;5.65;;
47958;SDS011;33718;50.910;-1.514;2023-07-22T11:23:12;11.95;;;6.05;;
47958;SDS011;33718;50.910;-1.514;2023-07-22T11:25:16;14.60;;;7.43;;
47958;SDS011;33718;50.910;-1.514;2023-07-22T11:27:18;16.00;;;6.70;;
47958;SDS011;33718;50.910;-1.514;2023-07-22T11:29:22;10.95;;;6.25;;
47958;SDS011;33718;50.910;-1.514;2023-07-22T11:31:33;13.10;;;6.10;;
47958;SDS011;33718;50.910;-1.514;2023-07-22T11:33:53;11.65;;;5.82;;
47958;SDS011;33718;50.910;-1.514;2023-07-22T11:35:58;8.60;;;6.30;;
47958;SDS011;33718;50.910;-1.514;2023-07-22T11:38:00;7.70;;;5.40;;
47958;SDS011;33718;50.910;-1.514;2023-07-22T11:40:02;10.07;;;5.88;;
47958;SDS011;33718;50.910;-1.514;2023-07-22T11:42:07;12.52;;;6.10;;
47958;SDS011;33718;50.910;-1.514;2023-07-22T11:44:09;11.98;;;5.72;;
47958;SDS011;33718;50.910;-1.514;2023-07-22T11:46:11;14.18;;;7.32;;
47958;SDS011;33718;50.910;-1.514;2023-07-22T11:48:15;13.30;;;7.15;;
47958;SDS011;33718;50.910;-1.514;2023-07-22T11:50:30;13.85;;;6.95;;
47958;SDS011;33718;50.910;-1.514;2023-07-22T11:52:32;16.00;;;7.90;;
47958;SDS011;33718;50.910;-1.514;2023-07-22T11:54:40;11.25;;;7.90;;
47958;SDS011;33718;50.910;-1.514;2023-07-22T11:56:42;12.98;;;7.95;;
47958;SDS011;33718;50.910;-1.514;2023-07-22T11:58:53;11.65;;;7.60;;
47958;SDS011;33718;50.910;-1.514;2023-07-22T12:01:02;18.08;;;8.23;;
47958;SDS011;33718;50.910;-1.514;2023-07-22T12:03:06;16.42;;;9.10;;
47958;SDS011;33718;50.910;-1.514;2023-07-22T12:05:08;16.52;;;8.35;;
47958;SDS011;33718;50.910;-1.514;2023-07-22T12:07:23;17.02;;;9.13;;
47958;SDS011;33718;50.910;-1.514;2023-07-22T12:09:28;17.33;;;8.52;;
47958;SDS011;33718;50.910;-1.514;2023-07-22T12:11:32;17.30;;;8.68;;
47958;SDS011;33718;50.910;-1.514;2023-07-22T12:13:37;14.73;;;8.40;;
47958;SDS011;33718;50.910;-1.514;2023-07-22T12:15:38;11.43;;;8.48;;
47958;SDS011;33718;50.910;-1.514;2023-07-22T12:17:56;12.43;;;7.35;;
47958;SDS011;33718;50.910;-1.514;2023-07-22T12:19:58;14.65;;;9.27;;
47958;SDS011;33718;50.910;-1.514;2023-07-22T12:21:59;12.63;;;8.75;;
47958;SDS011;33718;50.910;-1.514;2023-07-22T12:24:20;14.68;;;9.25;;
47958;SDS011;33718;50.910;-1.514;2023-07-22T12:26:21;15.80;;;10.48;;
47958;SDS011;33718;50.910;-1.514;2023-07-22T12:28:26;22.40;;;9.82;;
47958;SDS011;33718;50.910;-1.514;2023-07-22T12:30:27;16.30;;;9.85;;
47958;SDS011;33718;50.910;-1.514;2023-07-22T12:32:32;16.73;;;10.63;;
47958;SDS011;33718;50.910;-1.514;2023-07-22T12:34:34;23.08;;;11.43;;
47958;SDS011;33718;50.910;-1.514;2023-07-22T12:36:54;16.10;;;10.20;;
47958;SDS011;33718;50.910;-1.514;2023-07-22T12:38:58;17.92;;;9.60;;
47958;SDS011;33718;50.910;-1.514;2023-07-22T12:41:03;21.08;;;11.10;;
47958;SDS011;33718;50.910;-1.514;2023-07-22T12:43:27;15.48;;;10.35;;
47958;SDS011;33718;50.910;-1.514;2023-07-22T12:45:31;17.17;;;10.15;;